Crystal Springs, MS (39059)

11:32 AM CDT on May 29, 2015 (GMT -0500)
Crystal Springs Farm Mkt | | Change Station
CLOSE
Current Station
Personal Weather Station
Location: Crystal Springs, MS
Elevation: 453 ft
Nearby Weather Stations

Elev 453 ft 31.95 °N, 90.34 °W | Updated 13 minutes ago

Partly Cloudy
Partly Cloudy
82.7 °F
Feels Like 88 °F
N
0.0
Wind Variable Wind from SSE

Today
High -- | Low -- °F
--% Chance of Precip.
Yesterday
High -- | Low -- °F
Precip. -- in
5:57 AM 8:00 PM
Waxing Gibbous, 84% visible
Pressure 30.10 in
Visibility 10.0 miles
Clouds Few 2700 ft
Few 3300 ft
Scattered Clouds 5500 ft
Heat Index 88 °F
Dew Point 72 °F
Humidity 71%
Rainfall 0.00 in
Snow Depth Not available.
UV 8 out of 12
Pollen 5.30 out of 12
Air Quality Not available.
Flu Activity No Activity
METAR KJVW 291615Z AUTO 16006G11KT 10SM FEW027 FEW033 SCT055 29/26 A3010 RMK AO2

More Conditions Fewer Conditions

Pressure 30.10 in
Visibility 10.0 miles
Clouds Few 2700 ft
Few 3300 ft
Scattered Clouds 5500 ft
Heat Index 88 °F
Dew Point 72 °F
Humidity 71%
Rainfall 0.00 in
Snow Depth Not available.
UV 8 out of 12
Pollen 5.30 out of 12
Air Quality Not available.
Flu Activity No Activity
METAR KJVW 291615Z AUTO 16006G11KT 10SM FEW027 FEW033 SCT055 29/26 A3010 RMK AO2

More Conditions Fewer Conditions

10-Day Weather Forecast

Almanac

Astronomy

May. 29, 2015 Rise Set
Actual Time
Civil Twilight
Nautical Twilight
Astronomical Twilight
Moon
Length of Visible Light
Length of Day
Tomorrow will be .
, % of the Moon is Illuminated

Today's Extremes

State Highs State Lows

Community

WunderPhotos

Upload Photos

1,825,301 photos uploaded!

WunderBlogs® & News

Nearby

Air Quality

  Air Quality AQ Index Pollutant
Not available.

Snow Depth

Station Depth Elevation

Earthquake Activity

City Distance Mag. Time & Date
Minimum magnitude displayed is 2.5.

Coastal Water Temperatures

Place Temperature

Stations

Nearby Weather Stations

Station Location Temp. Windchill Dew Point Humidity Wind Precip. Elev Updated Type